Карточка аэропорта UMMS

Внимание!
Информация на этой странице в стадии наполнения.
Если вы не увидели какой-то информации, или заметили неточность - пожалуйста сообщите нам!
Спасибо!
Команда RU-STAFF
Название аэропортаMinsk 2
Название аэропорта (англ.)Minsk 2
Превышение681 ft. (207.6 m.)
Координаты53°52.95', 28°1.848'
Высота перехода6000 ft
Эшелон переходаFL80; QNH<977hPa - FL90
Коды ответчика0020−0027; 6230-6277
Зона ОрВДМинск РПИ (UMMV)
Данные METARUMMS 272030Z 07002MPS 9999 BKN028 10/09 Q1004 NOSIG
Проноз погоды (TAF)UMMS 271703Z 2718/2818 08005MPS 6000 BKN007 TEMPO 2718/2808 0200 -SHRA FG OVC001 BKN020CB TEMPO 2808/2818 10006G11MPS 3000 -SHRA BR BKN020CB
NOTAMshow/hide NOTAM
AWOS   TABLE

Информация о ВПП

ВПП Длина ВПП (м.) Покрытие Курс ВПП Частота ILS
13L3700Цементобетон130110.7
31R3700Цементобетон310110.1

Диспетчерские позиции

Позывной Наименование органа УВД Частота
UMMS_APPMinsk Approach125.900
UMMS_R_APPMinsk Radar125.250
UMMS_TWRMinsk Tower130.400
UMMS_GNDMinsk Ground129.950



Спутниковое изображение